Main page
METAR-TAF:

METAR-TAF

Airports :

Rasht, Iran

Rasht Airport

latitude: 37-12N, longitude: 049-38E, elevation: -7 m

Current weather observation

The report was made 32 minutes ago, at 20:00 UTC
Wind 4 kt from the South/Southwest
Temperature 16°C
Humidity 94%
Pressure 1017 hPa
Visibility: 4000 m
Scattered clouds at a height of 1000 ft, Cumulonimbus.
Scattered clouds at a height of 1500 ft
Overcast at a height of 7000 ft
thunderstorm, (heavy) rain showers

METAR: OIGG 302000Z 21004KT 4000 +TS SHRA SCT010CB SCT015 OVC070 16/15 Q1017

Time: 01:02 (20:32 UTC)


TAF: missing

Weather observations and forecasts of more than 4000 airports (METAR and TAF reports).

The available stations are represented by yellow and red dots on the map.

Hover mouse over dot to see the name of the station.

Then click to see weather observations and forecasts.

To change the map : click on the green buttons with a black cross to zoom in, on the green button with a dash to zoom out, or on the green arrows for adjacent maps.


METAR-TAF: